WetterOnline ( http://www.wetteronline.de )

Wetter aktuell Beeskow

Aktuelles Wetter: Lindenberg b. Beeskow (104m)

6-stündlich | Neueste Meldungen
Ortszeit Temperatur Wetter
So, 22.07. 2:00 18.8° C leicht bewölkt
Sa, 21.07. 20:00 23.7° C leicht bewölkt
Sa, 21.07. 14:00 25.9° C leicht bewölkt
Sa, 21.07. 8:00 19.2° C leicht bewölkt
Sa, 21.07. 2:00 16.9° C wolkenlos
Fr, 20.07. 20:00 25.0° C leicht bewölkt
Fr, 20.07. 14:00 25.4° C wolkig
Fr, 20.07. 8:00 17.6° C wolkenlos
Ortszeit Temperatur Wetter
So, 22.07. 6:30 15.9° C wolkig
So, 22.07. 6:10 15.8° C bedeckt
So, 22.07. 6:00 15.5° C wolkig
So, 22.07. 5:50 15.5° C bedeckt
So, 22.07. 5:40 15.6° C bedeckt
So, 22.07. 5:30 15.4° C wolkig
So, 22.07. 5:00 15.0° C wolkig
So, 22.07. 4:30 15.8° C wolkig
So, 22.07. 4:00 16.0° C wolkig
So, 22.07. 3:30 16.8° C leicht bewölkt
Ortszeit Relative Feuchte Sichtweite
So, 22.07. 2:00 56% 30 km
Sa, 21.07. 20:00 45% 50 km
Sa, 21.07. 14:00 36% 35 km
Sa, 21.07. 8:00 59% 40 km
Sa, 21.07. 2:00 65% 30 km
Fr, 20.07. 20:00 37% 30 km
Fr, 20.07. 14:00 37% 35 km
Fr, 20.07. 8:00 68% 30 km
Ortszeit Relative Feuchte Sichtweite
So, 22.07. 6:30 75% 25 km
So, 22.07. 6:10 75% -
So, 22.07. 6:00 77% 25 km
So, 22.07. 5:50 77% -
So, 22.07. 5:40 77% -
So, 22.07. 5:30 76% 20 km
So, 22.07. 5:00 79% 20 km
So, 22.07. 4:30 75% 20 km
So, 22.07. 4:00 72% 30 km
So, 22.07. 3:30 66% 30 km
Ortszeit Niederschlagsmenge Niederschlagsart
So, 22.07. 2:00 0.0 l/m2 in 6 Std. -
Sa, 21.07. 20:00 0.0 l/m2 in 12 Std. -
Sa, 21.07. 14:00 0.0 l/m2 in 6 Std. -
Sa, 21.07. 8:00 0.0 l/m2 in 12 Std. -
Sa, 21.07. 2:00 0.0 l/m2 in 6 Std. -
Fr, 20.07. 20:00 0.0 l/m2 in 12 Std. -
Fr, 20.07. 14:00 0.0 l/m2 in 6 Std. -
Fr, 20.07. 8:00 0.0 l/m2 in 12 Std. -
Ortszeit Niederschlagsmenge Niederschlagsart
So, 22.07. 6:30 0.0 l/m2 in 1 Std. -
So, 22.07. 6:10 keine Meldung -
So, 22.07. 6:00 0.0 l/m2 in 1 Std. -
So, 22.07. 5:50 keine Meldung -
So, 22.07. 5:40 keine Meldung -
So, 22.07. 5:30 0.0 l/m2 in 1 Std. -
So, 22.07. 5:00 0.0 l/m2 in 1 Std. -
So, 22.07. 4:30 0.0 l/m2 in 1 Std. -
So, 22.07. 4:00 0.0 l/m2 in 1 Std. -
So, 22.07. 3:30 0.0 l/m2 in 1 Std. -
Ortszeit Stärke Spitze Richtung
km/h Bft. km/h Grad Sektor
So, 22.07. 2:00 7 2 18 70° O
Sa, 21.07. 20:00 7 2 22 30° NO
Sa, 21.07. 14:00 4 1 22 50° NO
Sa, 21.07. 8:00 6 1 20 60° NO
Sa, 21.07. 2:00 9 2 22 40° NO
Fr, 20.07. 20:00 6 1 35 320° NW
Fr, 20.07. 14:00 14 3 32 270° W
Fr, 20.07. 8:00 7 2 15 310° NW
Ortszeit Stärke Spitze Richtung
km/h Bft. km/h Grad Sektor
So, 22.07. 6:30 7 2 11 350° N
So, 22.07. 6:10 7 2 - 340° N
So, 22.07. 6:00 7 2 11 340° N
So, 22.07. 5:50 7 2 - 340° N
So, 22.07. 5:40 9 2 - 340° N
So, 22.07. 5:30 7 2 11 320° NW
So, 22.07. 5:00 4 1 11 80° O
So, 22.07. 4:30 7 2 11 70° O
So, 22.07. 4:00 6 1 9 60° NO
So, 22.07. 3:30 6 1 9 60° NO
Ortszeit Untergrenze Bedeckung Gattung
total tief tief mittel hoch
So, 22.07. 2:00 7800 m 3/8 0/8 - - Ci
Sa, 21.07. 20:00 4800 m 7/8 1/8 - Ac Cs
Sa, 21.07. 14:00 7800 m 7/8 0/8 - - Cs
Sa, 21.07. 8:00 10500 m 6/8 0/8 - - Ci
Sa, 21.07. 2:00 - 0/8 0/8 - - -
Fr, 20.07. 20:00 9000 m 2/8 0/8 - - Ci
Fr, 20.07. 14:00 1800 m 5/8 5/8 Cu - -
Fr, 20.07. 8:00 - 0/8 0/8 - - -
Ortszeit Bedeckungsgrad in Achtel und Wolkenuntergrenze
So, 22.07. 6:30 7(4200m)
So, 22.07. 6:10 8(4200m) 8(6900m)
So, 22.07. 6:00 2(4200m) 8(5100m) 8(6900m)
So, 22.07. 5:50 6(4500m) 8(5100m) 8(6900m)
So, 22.07. 5:40 5(4800m) 8(5700m) 8(6900m)
So, 22.07. 5:30 3(4800m) 8(5400m) 8(7200m)
So, 22.07. 5:00 3(4800m) 8(6600m)
So, 22.07. 4:30 7(4800m)
So, 22.07. 4:00 5(4800m) 7(6900m) 8(9000m)
So, 22.07. 3:30 2(4800m) 6(7200m) 8(10500m)
Ortszeit Luftdruck NN (hPa) Tendenz (hPa in 3 Std.)
So, 22.07. 2:00 1012 + 0,1
Sa, 21.07. 20:00 1011 - 0,2
Sa, 21.07. 14:00 1012 - 0,7
Sa, 21.07. 8:00 1013 0,0
Sa, 21.07. 2:00 1013 - 0,4
Fr, 20.07. 20:00 1013 - 0,5
Fr, 20.07. 14:00 1014 - 1,0
Fr, 20.07. 8:00 1016 + 0,1
Ortszeit Luftdruck NN (hPa) Tendenz (hPa in 3 Std.)
So, 22.07. 6:30 1013 + 0,5
So, 22.07. 6:10 1013 keine Meldung
So, 22.07. 6:00 1013 + 0,7
So, 22.07. 5:50 1013 keine Meldung
So, 22.07. 5:40 1013 keine Meldung
So, 22.07. 5:30 1013 + 0,3
So, 22.07. 5:00 1012 + 0,1
So, 22.07. 4:30 1012 - 0,1
So, 22.07. 4:00 1012 - 0,1
So, 22.07. 3:30 1012 - 0,2
Ortszeit Schneehöhe (cm)
So, 22.07. 2:00 0
Sa, 21.07. 20:00 0
Sa, 21.07. 14:00 0
Sa, 21.07. 8:00 0
Sa, 21.07. 2:00 0
Fr, 20.07. 20:00 0
Fr, 20.07. 14:00 0
Fr, 20.07. 8:00 0
Ortszeit Schneehöhe (cm)
So, 22.07. 6:30 -
So, 22.07. 6:10 -
So, 22.07. 6:00 -
So, 22.07. 5:50 -
So, 22.07. 5:40 -
So, 22.07. 5:30 -
So, 22.07. 5:00 -
So, 22.07. 4:30 -
So, 22.07. 4:00 -
So, 22.07. 3:30 -
Link zu dieser Seite / Seite empfehlen

Das Wetter in ...